• Join FlightAware (Why Join?)
  • Login
  • US Flag GB Flag 
15:46 EDT


 

Airport Tracker/Info


-or-


 

Live Flight TrackerFlight Track Log ✈ N989WU ✈ 02-Dec-2013 ✈ KTPF - KAPF

Flight Track Log - Related Links

Times and Time Zones

All times are in EST time to prevent confusion due to time zone crossing. See the N989WU flight status page for this flight to view local times or setup timezone preferences in your user account.

Time Position Orientation Groundspeed Altitude Reporting Facility
EST Latitude Longitude Course Direction KTS MPH feet Rate Location/Type
22:30 27.7500 -82.3333 222° Southwest 106 122 2,900  Level Tampa TRACON
22:31 27.7333 -82.3333 180° South 90 104 3,600 660 Climbing Tampa TRACON
22:32 27.7000 -82.3333 180° South 84 97 4,300 660 Climbing Tampa TRACON
22:33 27.6833 -82.3167 138° Southeast 81 93 5,000 660 Climbing Tampa TRACON
22:34 27.6667 -82.3167 180° South 76 87 5,700 600 Climbing Tampa TRACON
22:35 27.6500 -82.3000 138° Southeast 77 89 6,300 600 Climbing Tampa TRACON
22:36 27.6167 -82.3000 180° South 77 89 6,900 300 Climbing Tampa TRACON
22:37 27.6000 -82.3000 180° South 83 96 7,000  Climbing Tampa TRACON
22:38 27.5833 -82.3000 180° South 88 101 7,000 -60 Level Tampa TRACON
22:39 27.5500 -82.3000 180° South 87 100 6,900  Descending Tampa TRACON
22:40 27.5333 -82.3167 222° Southwest 88 101 7,000  Climbing Tampa TRACON
22:41 27.5000 -82.3167 180° South 88 101 6,900  Descending Tampa TRACON
22:42 27.4833 -82.3167 180° South 86 99 7,000  Climbing Tampa TRACON
22:43 27.4500 -82.3167 180° South 79 91 6,900  Descending Tampa TRACON
22:44 27.4333 -82.3167 180° South 83 96 7,000  Climbing Tampa TRACON
22:45 27.4000 -82.3333 204° Southwest 84 97 7,000  Level Tampa TRACON
22:46 27.3833 -82.3333 180° South 88 101 7,000 -60 Level Tampa TRACON
22:47 27.3667 -82.3333 180° South 87 100 6,900 -60 Descending Tampa TRACON
22:48 27.3500 -82.3333 180° South 85 98 6,900  Level Tampa TRACON
22:49 27.3167 -82.3333 180° South 83 96 6,900  Level Tampa TRACON
22:50 27.3000 -82.3333 180° South 87 100 6,900  Level Tampa TRACON
22:51 27.2667 -82.3333 180° South 90 104 7,000  Climbing Tampa TRACON
22:52 27.2500 -82.3333 180° South 83 96 7,000 -60 Level Tampa TRACON
22:53 27.2167 -82.3333 180° South 87 100 6,900  Descending Tampa TRACON
22:54 27.2000 -82.3333 180° South 88 101 7,000  Climbing Tampa TRACON
22:55 27.1667 -82.3167 156° South 98 113 6,900  Descending Tampa TRACON
22:56 27.1500 -82.3000 138° Southeast 96 110 7,000  Climbing Tampa TRACON
22:57 27.1333 -82.2833 138° Southeast 96 110 7,000 -60 Level Tampa TRACON
22:58 27.1000 -82.2833 180° South 98 113 6,900 -60 Descending Tampa TRACON
22:59 27.0833 -82.2667 138° Southeast 93 107 6,900  Level Tampa TRACON
23:00 27.0500 -82.2500 156° South 101 116 6,900  Level Tampa TRACON
23:01 27.0333 -82.2500 180° South 88 101 7,000 60 Climbing Tampa TRACON
23:03 26.9890 -82.2259 156° South  Level Estimated
23:10 26.8641 -82.1002 158° South  Level FlightAware Approximate
23:11 26.8386 -82.0884 158° South  Level FlightAware Approximate
23:12 26.8130 -82.0767 158° South  Level FlightAware Approximate
23:13 26.7875 -82.0649 158° South  Level FlightAware Approximate
23:14 26.7619 -82.0532 158° South  Level FlightAware Approximate
23:15 26.7363 -82.0415 158° South  Level FlightAware Approximate
23:16 26.7107 -82.0298 158° South  Level FlightAware Approximate
23:17 26.6852 -82.0180 158° South  Level FlightAware Approximate
23:18 26.6596 -82.0063 158° South  Level FlightAware Approximate
23:19 26.6340 -81.9946 158° South  Level FlightAware Approximate
23:20 26.6085 -81.9829 158° South  Level FlightAware Approximate
23:21 26.5829 -81.9712 158° South  Level FlightAware Approximate
23:22 26.5573 -81.9595 158° South  Level FlightAware Approximate
23:23 26.5317 -81.9478 158° South  Level FlightAware Approximate
23:24 26.5062 -81.9361 158° South  Level FlightAware Approximate
23:25 26.4803 -81.9254 160° South  Level FlightAware Approximate
23:26 26.4543 -81.9150 160° South  Level FlightAware Approximate
23:27 26.4282 -81.9046 160° South  Level FlightAware Approximate
23:28 26.4032 -81.8919 152° Southeast  Level FlightAware Approximate
23:29 26.3788 -81.8773 152° Southeast  Level FlightAware Approximate
23:30 26.3545 -81.8627 152° Southeast  Level FlightAware Approximate
23:31 26.3300 -81.8485 159° South  Level FlightAware Approximate
23:32 26.3042 -81.8375 159° South  Level FlightAware Approximate
23:33 26.2784 -81.8264 159° South  Level FlightAware Approximate
23:34 26.2526 -81.8154 159° South  Level FlightAware Approximate
23:35 26.2268 -81.8043 159° South  Level FlightAware Approximate
23:36 26.2014 -81.7923 156° South  Level FlightAware Approximate
23:37 26.1761 -81.7797 156° South  Level FlightAware Approximate
23:38 26.1509 -81.7671 156° South  Level FlightAware Approximate
23:39 26.1500 -81.7667 156° South  Level FlightAware Approximate
23:40 26.1524 -81.7756 156° South  Level Estimated
23:41 26.1524 -81.7756 156° South  Level Estimated
23:42 26.1524 -81.7756 156° South  Level Estimated
23:43 26.1524 -81.7756 156° South  Level Estimated
23:44 26.1524 -81.7756 156° South  Level Estimated
23:45 26.1524 -81.7756 156° South  Level Estimated
23:46 26.1524 -81.7756 156° South  Level Estimated
23:47 26.1524 -81.7756 156° South  Level Estimated
23:48 26.1524 -81.7756 156° South  Level Estimated
23:49 26.1524 -81.7756 156° South  Level Estimated
23:50 26.1524 -81.7756 156° South  Level Estimated
23:51 26.1524 -81.7756 156° South  Level Estimated
23:52 26.1524 -81.7756 156° South  Level Estimated
23:53 26.1524 -81.7756 156° South  Level Estimated